Airfield :
LOGIN :

Register | Disclaimer

   EN    FR    IT 

 










Legend :    VFR   Marginal VFR   IFR   Intensive IFR   Very Intensive IFR
Visi :
Ceiling :
>= 8 km
>= 3000ft
5 to 8 km
1000 to 3000 ft
1500m to 5 km
500 to 1000 ft
800 to 1500m
200 to 500 ft
< 800m
< 200 ft
Symbols :   Thunderstorms  Fog  Heavy snow  Heavy precipitations  Wind > 20 kt
SIGMETs :     Misc.  Thunderstorms  Icing  Turbulence  Mountain Waves  Volcanic Ashes






- Airport Elevation : 287 ft


LFRL - Lanveoc Poulmic

CURRENT METAR :
  • 130430Z AUTO 30023G39KT 9999 FEW016/// SCT035/// BKN047/// ///CB 08/04 Q0990

EXPIRED METARs :
  • 130400Z AUTO 30025G38KT 9999 BKN035/// BKN043/// OVC078/// ///TCU 09/04 Q0989
  • 130330Z AUTO 30025G38KT 9999 SCT031 BKN037 BKN072 09/04 Q0989
  • 130300Z AUTO 29024G36KT 9999 FEW016/// SCT033/// BKN041/// ///CB 08/05 Q0988
  • 130230Z AUTO 30023G36KT 9999 BKN036 BKN048 BKN072 10/04 Q0988
  • 130200Z AUTO 30027G42KT 9999 FEW033 BKN041 BKN048 10/04 Q0987

TAF TAF LFRL
Valid from the 12 at 12:00 until the 13 at 12:00 UTC


121100Z 1212/1312 28020G30KT 9999 BKN015 BKN025
TEMPO 1212/1221 2000 SHRA SCT005 BKN010CB SCT014TCU
TEMPO 1221/1312 29027G43KT 3000 SHRA SCT020TCU BKN030



MET'MAP, your aeronautical weather chart ! - Copyright ORBIFLY December 2007 - Disclaimer

ORBIFLY MET'MAP TEAM :

Programming & Development : Alexandra Zaïnal
Concept & original design : Baudouin d'Aumeries
Assistance for programming : Marc-Olivier Méhu
Technical & hardware support : Manuel Goepfert

Contact : metmap@orbifly.com




SOURCES & CREDITS :

   NOAA